Time;durP1;ratioP1;P1;durP2;ratioP2;P2;SDS_P1;SDS_P2;PMS_P1;PMS_P2;Temp;Humidity;BMP_temperature;BMP_pressure;BME280_temperature;BME280_humidity;BME280_pressure;Samples;Min_cycle;Max_cycle;Signal;HPM_P1;HPM_P2
2021/03/27 00:00:30;;;;;;;5.70;1.13;;;6.60;99.90;;;;;;4992168;28;20050;-86
2021/03/27 00:03:01;;;;;;;;;;;6.60;99.90;;;;;;4993374;28;20405;-87
2021/03/27 00:05:44;;;;;;;2.67;1.55;;;6.60;99.90;;;;;;4998738;28;19931;-88
2021/03/27 00:08:15;;;;;;;3.85;1.65;;;6.50;99.90;;;;;;5005781;28;20042;-86
2021/03/27 00:10:42;;;;;;;2.10;1.33;;;6.50;99.90;;;;;;4999089;28;20046;-87
2021/03/27 00:13:28;;;;;;;2.05;1.73;;;6.50;99.90;;;;;;4986959;28;20082;-86
2021/03/27 00:16:04;;;;;;;5.78;2.20;;;6.50;99.90;;;;;;4992625;28;20069;-87
2021/03/27 00:18:47;;;;;;;3.72;1.80;;;6.50;99.90;;;;;;4994080;28;20054;-86
2021/03/27 00:21:24;;;;;;;5.43;2.30;;;6.50;99.90;;;;;;4997985;28;20575;-85
2021/03/27 00:23:55;;;;;;;4.22;1.63;;;6.50;99.90;;;;;;4991407;28;20126;-86
2021/03/27 00:26:32;;;;;;;4.70;1.85;;;6.50;99.90;;;;;;4999967;28;20100;-85
2021/03/27 00:29:10;;;;;;;4.05;1.75;;;6.50;99.90;;;;;;4987441;28;20053;-86
2021/03/27 00:31:43;;;;;;;2.92;1.80;;;6.50;99.90;;;;;;4989456;28;20057;-85
2021/03/27 00:34:14;;;;;;;4.38;1.80;;;6.50;99.90;;;;;;4989639;28;20394;-86
2021/03/27 00:36:48;;;;;;;7.10;2.00;;;6.50;99.90;;;;;;4984808;28;20053;-85
2021/03/27 00:39:25;;;;;;;9.88;2.22;;;6.50;99.90;;;;;;4990070;28;20050;-86
2021/03/27 00:42:06;;;;;;;7.93;2.10;;;6.50;99.90;;;;;;5006341;28;20114;-87
2021/03/27 00:44:41;;;;;;;7.65;3.08;;;6.50;99.90;;;;;;4996996;28;20057;-86
2021/03/27 00:47:13;;;;;;;4.20;1.60;;;6.50;99.90;;;;;;4989764;28;20062;-86
2021/03/27 00:49:52;;;;;;;4.05;1.35;;;6.50;99.90;;;;;;5003492;28;20077;-86
2021/03/27 00:52:20;;;;;;;3.25;1.60;;;6.50;99.90;;;;;;5001254;28;20770;-87
2021/03/27 00:54:51;;;;;;;3.35;1.45;;;6.40;99.90;;;;;;4999750;28;20106;-87
2021/03/27 00:57:27;;;;;;;2.08;1.33;;;6.40;99.90;;;;;;4994670;28;20128;-86
2021/03/27 01:00:03;;;;;;;1.70;1.35;;;6.40;99.90;;;;;;4981533;28;20050;-87
2021/03/27 01:02:30;;;;;;;3.00;1.23;;;6.30;99.90;;;;;;4988110;28;20096;-85
2021/03/27 01:04:59;;;;;;;7.93;1.60;;;6.30;99.90;;;;;;4995280;28;20046;-86
2021/03/27 01:07:26;;;;;;;5.38;2.00;;;6.30;99.90;;;;;;4986747;28;20073;-86
2021/03/27 01:09:59;;;;;;;4.35;1.65;;;6.20;99.90;;;;;;4991135;28;20109;-87
2021/03/27 01:12:36;;;;;;;2.95;1.85;;;6.20;99.90;;;;;;4987898;28;20057;-87
2021/03/27 01:15:14;;;;;;;3.08;1.50;;;6.20;99.90;;;;;;4994227;28;20046;-86
2021/03/27 01:17:47;;;;;;;4.95;1.88;;;6.20;99.90;;;;;;4986099;28;20034;-87
2021/03/27 01:20:24;;;;;;;5.88;1.52;;;6.20;99.90;;;;;;4985183;28;20046;-87
2021/03/27 01:22:53;;;;;;;2.55;1.65;;;6.10;99.90;;;;;;4999907;28;20038;-86
2021/03/27 01:25:26;;;;;;;3.85;1.30;;;6.10;99.90;;;;;;5013815;28;20045;-85
2021/03/27 01:28:00;;;;;;;5.33;1.43;;;6.10;99.90;;;;;;5014893;28;20049;-86
2021/03/27 01:30:40;;;;;;;3.53;1.13;;;6.10;99.90;;;;;;5020326;28;20045;-86
2021/03/27 01:33:21;;;;;;;4.78;1.55;;;6.00;99.90;;;;;;5001615;28;20469;-86
2021/03/27 01:36:06;;;;;;;4.05;2.45;;;6.00;99.90;;;;;;5020415;28;20478;-86
2021/03/27 01:38:41;;;;;;;3.97;1.65;;;6.00;99.90;;;;;;4997444;28;20109;-86
2021/03/27 01:41:30;;;;;;;2.72;1.77;;;6.00;99.90;;;;;;4999958;28;20132;-86
2021/03/27 01:44:12;;;;;;;4.07;1.85;;;5.90;99.90;;;;;;5012850;28;20097;-85
2021/03/27 01:47:04;;;;;;;2.15;1.95;;;6.00;99.90;;;;;;5006419;28;20065;-86
2021/03/27 01:49:40;;;;;;;4.07;2.10;;;5.90;99.90;;;;;;4998940;28;20046;-84
2021/03/27 01:52:27;;;;;;;5.47;2.17;;;6.00;99.90;;;;;;5008672;28;20133;-86
2021/03/27 01:55:21;;;;;;;4.75;2.72;;;5.90;99.90;;;;;;4986750;28;20062;-85
2021/03/27 01:58:00;;;;;;;5.72;2.13;;;6.00;99.90;;;;;;5000883;28;20560;-87
2021/03/27 02:00:37;;;;;;;6.53;2.38;;;5.90;99.90;;;;;;4989906;28;20096;-87
2021/03/27 02:03:32;;;;;;;9.82;2.63;;;6.00;99.90;;;;;;4998386;28;20050;-87
2021/03/27 02:06:08;;;;;;;5.13;2.03;;;5.90;99.90;;;;;;5005488;28;20054;-87
2021/03/27 02:08:53;;;;;;;7.78;2.08;;;5.90;99.90;;;;;;4996980;28;20042;-86
2021/03/27 02:11:48;;;;;;;6.55;2.20;;;6.00;99.90;;;;;;4991021;28;20062;-87
2021/03/27 02:14:37;;;;;;;6.03;2.20;;;6.00;99.90;;;;;;5004190;28;20054;-87
2021/03/27 02:17:38;;;;;;;5.97;2.42;;;6.00;99.90;;;;;;5002668;28;20050;-86
2021/03/27 02:20:26;;;;;;;3.08;1.70;;;6.00;99.90;;;;;;4986116;28;20041;-87
2021/03/27 02:23:21;;;;;;;4.93;1.95;;;6.00;99.90;;;;;;4989311;28;20449;-87
2021/03/27 02:26:15;;;;;;;2.90;1.92;;;6.00;99.90;;;;;;5003505;28;20447;-87
2021/03/27 02:29:04;;;;;;;7.68;2.50;;;6.00;99.90;;;;;;4995296;28;20058;-86
2021/03/27 02:31:38;;;;;;;8.25;2.50;;;5.90;99.90;;;;;;4984094;28;20077;-86
2021/03/27 02:34:58;;;;;;;6.90;2.42;;;5.90;99.90;;;;;;4992242;28;20131;-88
2021/03/27 02:37:32;;;;;;;5.88;2.63;;;5.90;99.90;;;;;;4973642;28;20109;-87
2021/03/27 02:40:22;;;;;;;4.28;2.30;;;5.90;99.90;;;;;;4994810;28;20566;-88
2021/03/27 02:43:06;;;;;;;4.88;2.30;;;5.80;99.90;;;;;;4996569;28;20177;-86
2021/03/27 02:45:48;;;;;;;4.55;2.42;;;5.80;99.90;;;;;;4996677;28;20046;-86
2021/03/27 02:48:20;;;;;;;6.70;2.20;;;5.70;99.90;;;;;;4990928;28;20049;-85
2021/03/27 02:50:51;;;;;;;7.97;2.42;;;5.70;99.90;;;;;;4978080;28;20148;-85
2021/03/27 02:53:36;;;;;;;5.47;2.33;;;5.60;99.90;;;;;;4990426;28;20089;-87
2021/03/27 02:56:11;;;;;;;6.55;1.70;;;5.60;99.90;;;;;;4994228;28;20045;-87
2021/03/27 02:58:52;;;;;;;4.97;1.60;;;5.50;99.90;;;;;;4991553;28;20102;-87
2021/03/27 03:01:31;;;;;;;3.38;1.60;;;5.50;99.90;;;;;;4992062;28;20061;-86
2021/03/27 03:04:25;;;;;;;7.18;1.50;;;5.40;99.90;;;;;;4993625;28;20057;-85
2021/03/27 03:07:08;;;;;;;4.67;1.43;;;5.40;99.90;;;;;;5003297;28;20050;-87
2021/03/27 03:10:18;;;;;;;5.22;1.60;;;5.30;99.90;;;;;;5001071;28;20417;-87
2021/03/27 03:13:00;;;;;;;7.47;1.27;;;5.30;99.90;;;;;;4986250;28;20074;-87
2021/03/27 03:15:46;;;;;;;8.57;1.95;;;5.30;99.90;;;;;;5004580;28;20058;-86
2021/03/27 03:18:37;;;;;;;5.60;2.03;;;5.20;99.90;;;;;;4995093;28;20045;-87
2021/03/27 03:21:26;;;;;;;6.32;1.63;;;5.20;99.90;;;;;;4991211;28;20057;-86
2021/03/27 03:24:24;;;;;;;12.52;2.88;;;5.20;99.90;;;;;;4988931;28;20050;-87
2021/03/27 03:27:18;;;;;;;7.93;2.65;;;5.10;99.90;;;;;;4972470;28;20054;-86
2021/03/27 03:30:07;;;;;;;17.33;3.30;;;5.10;99.90;;;;;;4993403;28;20480;-86
2021/03/27 03:33:07;;;;;;;14.25;3.67;;;5.10;99.90;;;;;;4985221;28;20057;-88
2021/03/27 03:35:53;;;;;;;11.13;3.72;;;5.00;99.90;;;;;;4986547;28;20046;-87
2021/03/27 03:38:48;;;;;;;17.42;4.50;;;5.00;99.90;;;;;;5007053;28;20054;-87
2021/03/27 03:41:49;;;;;;;16.13;5.05;;;5.00;99.90;;;;;;4986094;28;20458;-86
2021/03/27 03:44:40;;;;;;;15.38;5.80;;;5.00;99.90;;;;;;4987539;28;20086;-87
2021/03/27 03:47:38;;;;;;;11.75;5.00;;;5.00;99.90;;;;;;4986587;28;20041;-88
2021/03/27 03:50:25;;;;;;;14.05;5.90;;;5.10;99.90;;;;;;5009016;28;20053;-85
2021/03/27 03:53:04;;;;;;;14.07;5.53;;;5.00;99.90;;;;;;5004717;28;20494;-86
2021/03/27 03:55:39;;;;;;;15.52;6.32;;;5.00;99.90;;;;;;4991216;28;20095;-85
2021/03/27 03:58:34;;;;;;;17.50;5.22;;;5.00;99.90;;;;;;5005359;28;20156;-86
2021/03/27 04:01:17;;;;;;;15.57;5.45;;;5.00;99.90;;;;;;4984590;28;20895;-86
2021/03/27 04:04:03;;;;;;;15.20;5.57;;;5.00;99.90;;;;;;4990366;28;20127;-85
2021/03/27 04:06:33;;;;;;;15.23;5.82;;;5.00;99.90;;;;;;4986603;28;20093;-86
2021/03/27 04:09:09;;;;;;;20.85;4.60;;;5.00;99.90;;;;;;4993819;28;20088;-86
2021/03/27 04:11:49;;;;;;;20.40;5.32;;;5.10;99.90;;;;;;4991475;28;20049;-85
2021/03/27 04:14:39;;;;;;;16.52;5.20;;;5.20;99.90;;;;;;4993208;28;20117;-85
2021/03/27 04:17:20;;;;;;;15.23;5.53;;;5.20;99.90;;;;;;4987208;28;20419;-87
2021/03/27 04:19:52;;;;;;;11.07;5.22;;;5.20;99.90;;;;;;4999970;28;20081;-86
2021/03/27 04:22:31;;;;;;;18.33;4.78;;;5.30;99.90;;;;;;4988358;28;20460;-86
2021/03/27 04:25:16;;;;;;;17.15;4.80;;;5.20;99.90;;;;;;4987647;28;20046;-86
2021/03/27 04:28:19;;;;;;;21.92;5.55;;;5.30;99.90;;;;;;4990278;28;20057;-86
2021/03/27 04:30:51;;;;;;;19.38;5.38;;;5.30;99.90;;;;;;4969765;28;20469;-86
2021/03/27 04:33:51;;;;;;;20.08;5.60;;;5.30;99.90;;;;;;4987314;28;20144;-86
2021/03/27 04:36:20;;;;;;;15.20;5.25;;;5.30;99.90;;;;;;4987906;28;20058;-86
2021/03/27 04:38:56;;;;;;;14.25;4.80;;;5.30;99.90;;;;;;4990460;28;20096;-87
2021/03/27 04:41:22;;;;;;;17.50;5.43;;;5.40;99.90;;;;;;4997877;28;20476;-85
2021/03/27 04:44:00;;;;;;;16.95;5.38;;;5.40;99.90;;;;;;4988122;28;20077;-87
2021/03/27 04:46:44;;;;;;;10.95;3.78;;;5.40;99.90;;;;;;4986151;28;20049;-87
2021/03/27 04:49:40;;;;;;;12.65;4.25;;;5.40;99.90;;;;;;4984674;28;20089;-88
2021/03/27 04:52:20;;;;;;;11.05;3.72;;;5.40;99.90;;;;;;5004602;28;20070;-87
2021/03/27 04:54:52;;;;;;;9.85;4.43;;;5.40;99.90;;;;;;4990171;28;20500;-86
2021/03/27 04:57:35;;;;;;;12.48;3.90;;;5.40;99.90;;;;;;5002921;28;20077;-87
2021/03/27 05:00:22;;;;;;;20.73;4.50;;;5.30;99.90;;;;;;4988739;28;20489;-88
2021/03/27 05:03:27;;;;;;;16.95;3.97;;;5.30;99.90;;;;;;5005507;28;20038;-87
2021/03/27 05:06:04;;;;;;;15.38;4.00;;;5.30;99.90;;;;;;4990457;28;20061;-87
2021/03/27 05:09:07;;;;;;;13.65;3.70;;;5.30;99.90;;;;;;5002598;28;20694;-87
2021/03/27 05:11:55;;;;;;;7.20;2.25;;;5.30;99.90;;;;;;4989537;28;20800;-88
2021/03/27 05:15:01;;;;;;;14.85;4.07;;;5.30;99.90;;;;;;5005001;28;20133;-88
2021/03/27 05:17:54;;;;;;;11.65;2.63;;;5.40;99.90;;;;;;4943378;28;20054;-88
2021/03/27 05:20:33;;;;;;;9.52;1.85;;;5.30;99.90;;;;;;4986259;28;20054;-88
2021/03/27 05:23:08;;;;;;;12.82;2.47;;;5.40;99.90;;;;;;4996623;28;20050;-87
2021/03/27 05:25:58;;;;;;;20.17;3.13;;;5.30;99.90;;;;;;5001832;28;20082;-87
2021/03/27 05:28:27;;;;;;;17.15;2.15;;;5.40;99.90;;;;;;5000008;28;20100;-88
2021/03/27 05:31:03;;;;;;;14.02;2.38;;;5.40;99.90;;;;;;4988410;28;20140;-88
2021/03/27 05:33:38;;;;;;;8.02;1.45;;;5.40;99.90;;;;;;5006230;28;20060;-87
2021/03/27 05:36:23;;;;;;;10.48;2.03;;;5.40;99.90;;;;;;4988537;28;20056;-88
2021/03/27 05:39:01;;;;;;;15.73;2.83;;;5.50;99.90;;;;;;4999675;28;20484;-87
2021/03/27 05:41:36;;;;;;;12.52;2.17;;;5.50;99.90;;;;;;4993511;28;20049;-89
2021/03/27 05:44:39;;;;;;;11.18;1.67;;;5.60;99.90;;;;;;4999758;28;20050;-89
2021/03/27 05:47:42;;;;;;;11.15;1.98;;;5.60;99.90;;;;;;4994950;28;20065;-85
2021/03/27 05:50:28;;;;;;;13.25;1.60;;;5.60;99.90;;;;;;4984896;28;20042;-87
2021/03/27 05:53:28;;;;;;;11.90;2.42;;;5.60;99.90;;;;;;4986985;28;20073;-87
2021/03/27 05:56:11;;;;;;;10.73;1.90;;;5.60;99.90;;;;;;4985358;28;20069;-88
2021/03/27 05:58:53;;;;;;;15.25;2.05;;;5.60;99.90;;;;;;4986280;28;20174;-87
2021/03/27 06:01:32;;;;;;;15.07;2.88;;;5.60;99.90;;;;;;4989015;28;20061;-88
2021/03/27 06:04:47;;;;;;;7.90;2.83;;;5.70;99.90;;;;;;4993664;28;20417;-85
2021/03/27 06:07:43;;;;;;;14.73;1.73;;;5.70;99.90;;;;;;4984259;28;20042;-85
2021/03/27 06:10:28;;;;;;;16.02;2.03;;;5.70;99.90;;;;;;4979836;28;20444;-89
2021/03/27 06:13:32;;;;;;;14.88;2.10;;;5.70;99.90;;;;;;4987462;28;20045;-87
2021/03/27 06:16:23;;;;;;;12.73;2.03;;;5.60;99.90;;;;;;4986450;28;20907;-88
2021/03/27 06:19:30;;;;;;;8.52;1.70;;;5.50;99.90;;;;;;5000361;28;20074;-88
2021/03/27 06:22:22;;;;;;;6.68;2.35;;;5.50;99.90;;;;;;5002713;28;20116;-87
2021/03/27 06:24:50;;;;;;;11.90;1.85;;;5.40;99.90;;;;;;4987711;28;20080;-88
2021/03/27 06:27:33;;;;;;;17.42;1.92;;;5.40;99.90;;;;;;5001802;28;20109;-87
2021/03/27 06:30:14;;;;;;;14.32;1.65;;;5.40;99.90;;;;;;5004709;28;20149;-86
2021/03/27 06:33:06;;;;;;;13.27;1.73;;;5.30;99.90;;;;;;4986942;28;20077;-88
2021/03/27 06:36:14;;;;;;;11.27;2.15;;;5.30;99.90;;;;;;4960959;28;20065;-86
2021/03/27 06:39:05;;;;;;;10.90;1.58;;;5.40;99.90;;;;;;4986006;28;20094;-87
2021/03/27 06:42:04;;;;;;;12.70;2.13;;;5.50;99.90;;;;;;5004531;28;20058;-87
2021/03/27 06:45:03;;;;;;;21.92;1.73;;;5.60;99.90;;;;;;4991028;28;20457;-87
2021/03/27 06:48:04;;;;;;;14.02;2.67;;;5.80;99.90;;;;;;4987438;28;20101;-88
2021/03/27 06:50:34;;;;;;;15.70;2.63;;;5.90;99.90;;;;;;4989658;28;20486;-88
2021/03/27 06:53:07;;;;;;;13.88;2.10;;;6.20;99.90;;;;;;5000725;28;20498;-87
2021/03/27 06:56:21;;;;;;;11.02;1.88;;;6.20;99.90;;;;;;4987674;28;20046;-86
2021/03/27 06:58:56;;;;;;;12.75;2.80;;;6.40;99.90;;;;;;4981872;28;20045;-86
2021/03/27 07:01:43;;;;;;;14.38;2.25;;;6.50;99.90;;;;;;4990259;28;20047;-87
2021/03/27 07:04:45;;;;;;;12.48;1.75;;;6.60;99.90;;;;;;4987784;28;20083;-86
2021/03/27 07:07:17;;;;;;;11.68;2.08;;;6.50;99.90;;;;;;4988028;28;20050;-86
2021/03/27 07:10:02;;;;;;;7.78;1.50;;;6.60;99.90;;;;;;4978428;28;20078;-86
2021/03/27 07:12:44;;;;;;;10.77;1.98;;;6.60;99.90;;;;;;4991277;28;20074;-87
2021/03/27 07:15:41;;;;;;;10.55;1.27;;;6.70;99.90;;;;;;5007524;28;20050;-86
2021/03/27 07:18:36;;;;;;;9.98;2.13;;;6.80;99.90;;;;;;5005414;28;20074;-86
2021/03/27 07:21:24;;;;;;;10.13;2.13;;;6.90;99.90;;;;;;4987205;28;20062;-86
2021/03/27 07:24:09;;;;;;;14.55;2.33;;;7.00;99.90;;;;;;4997984;28;20129;-85
2021/03/27 07:26:54;;;;;;;10.48;1.92;;;7.10;99.90;;;;;;4992627;28;20477;-86
2021/03/27 07:29:39;;;;;;;22.63;3.33;;;7.30;99.90;;;;;;5008527;28;20110;-86
2021/03/27 07:32:30;;;;;;;11.32;1.80;;;7.40;99.90;;;;;;4991593;28;20053;-87
2021/03/27 07:35:05;;;;;;;12.75;1.77;;;7.50;99.90;;;;;;4994388;28;20054;-87
2021/03/27 07:38:09;;;;;;;9.43;2.53;;;7.60;99.90;;;;;;4994470;28;20073;-86
2021/03/27 07:40:58;;;;;;;9.20;1.42;;;7.80;99.90;;;;;;5006177;28;20052;-87
2021/03/27 07:43:56;;;;;;;13.32;2.30;;;8.10;99.90;;;;;;4989323;28;20101;-88
2021/03/27 07:47:00;;;;;;;8.57;1.60;;;8.20;99.90;;;;;;4944793;28;20074;-88
2021/03/27 07:50:23;;;;;;;11.43;1.80;;;8.20;99.90;;;;;;5008474;28;20050;-86
2021/03/27 07:53:31;;;;;;;10.88;2.03;;;8.00;99.90;;;;;;4910686;29;20096;-87
2021/03/27 07:56:15;;;;;;;15.07;1.90;;;7.80;99.90;;;;;;4916380;29;20075;-87
2021/03/27 07:59:11;;;;;;;11.57;1.70;;;7.70;99.90;;;;;;4991955;28;20065;-87
2021/03/27 08:01:43;;;;;;;9.90;1.58;;;7.50;99.90;;;;;;5005963;28;20061;-87
2021/03/27 08:04:47;;;;;;;8.32;1.50;;;7.40;99.90;;;;;;5002974;28;20050;-87
2021/03/27 08:07:22;;;;;;;13.20;2.22;;;7.40;99.90;;;;;;4998805;28;20058;-87
2021/03/27 08:10:12;;;;;;;11.05;1.65;;;7.60;99.90;;;;;;5008216;28;20084;-87
2021/03/27 08:13:04;;;;;;;8.88;1.52;;;7.70;99.90;;;;;;4996655;28;20085;-86
2021/03/27 08:16:04;;;;;;;9.30;1.35;;;7.80;99.90;;;;;;4999018;28;20105;-85
2021/03/27 08:18:45;;;;;;;8.40;1.67;;;7.80;99.90;;;;;;4991054;28;20148;-86
2021/03/27 08:21:36;;;;;;;11.77;2.40;;;7.90;99.90;;;;;;5008308;28;20073;-86
2021/03/27 08:24:35;;;;;;;14.38;2.22;;;8.00;99.90;;;;;;4988997;28;20042;-86
2021/03/27 08:27:38;;;;;;;12.38;2.47;;;8.30;99.90;;;;;;4960696;28;20057;-86
2021/03/27 08:30:45;;;;;;;14.45;1.98;;;8.50;99.90;;;;;;4993288;28;20497;-87
2021/03/27 08:33:14;;;;;;;;;;;8.60;99.90;;;;;;4991490;28;20050;-86
2021/03/27 08:36:10;;;;;;;7.65;0.90;;;8.30;99.90;;;;;;5008232;28;19930;-87
2021/03/27 08:39:04;;;;;;;7.60;0.75;;;7.80;99.90;;;;;;4993884;28;20076;-86
2021/03/27 08:42:01;;;;;;;1.50;0.65;;;7.30;99.90;;;;;;4989242;28;20074;-87
2021/03/27 08:44:36;;;;;;;4.45;0.98;;;6.90;99.90;;;;;;4995291;28;20066;-86
2021/03/27 08:47:14;;;;;;;9.98;1.00;;;6.80;99.90;;;;;;4990348;28;20050;-86
2021/03/27 08:49:46;;;;;;;4.13;0.65;;;6.70;99.90;;;;;;5000402;28;20165;-86
2021/03/27 08:52:15;;;;;;;4.78;1.58;;;6.70;99.90;;;;;;5003680;28;20544;-86
2021/03/27 08:54:49;;;;;;;10.35;2.13;;;6.70;99.90;;;;;;4990254;28;20393;-87
2021/03/27 08:57:59;;;;;;;14.05;1.55;;;6.70;99.90;;;;;;4988435;28;20050;-86
2021/03/27 09:00:44;;;;;;;7.22;1.55;;;6.60;99.90;;;;;;5005590;28;20065;-87
2021/03/27 09:03:25;;;;;;;13.70;1.83;;;6.60;99.90;;;;;;4999605;28;20102;-87
2021/03/27 09:06:18;;;;;;;10.93;1.80;;;6.70;99.90;;;;;;5002650;28;20448;-86
2021/03/27 09:09:06;;;;;;;13.67;2.10;;;7.00;99.90;;;;;;5004077;28;20049;-87
2021/03/27 09:12:07;;;;;;;10.32;1.75;;;7.30;99.90;;;;;;4986152;28;20072;-86
2021/03/27 09:14:56;;;;;;;11.00;1.42;;;7.40;99.90;;;;;;4992823;28;20061;-88
2021/03/27 09:17:38;;;;;;;6.68;1.70;;;7.50;99.90;;;;;;4988179;28;20049;-87
2021/03/27 09:20:24;;;;;;;11.77;1.87;;;7.60;99.90;;;;;;4985005;28;20473;-87
2021/03/27 09:23:09;;;;;;;5.13;1.30;;;7.60;99.90;;;;;;5002397;28;20093;-87
2021/03/27 09:26:12;;;;;;;16.40;1.58;;;7.50;99.90;;;;;;4997741;28;20409;-87
2021/03/27 09:29:08;;;;;;;8.80;1.55;;;7.70;99.90;;;;;;4995770;28;20128;-87
2021/03/27 09:31:43;;;;;;;13.45;2.10;;;7.90;99.90;;;;;;4975264;28;20497;-88
2021/03/27 09:34:22;;;;;;;7.22;2.03;;;8.10;99.90;;;;;;4985894;28;20046;-88
2021/03/27 09:37:13;;;;;;;11.00;1.85;;;8.30;99.90;;;;;;4986936;28;20586;-87
2021/03/27 09:39:58;;;;;;;3.85;1.23;;;8.50;99.90;;;;;;5002343;28;20086;-87
2021/03/27 09:43:00;;;;;;;12.00;2.60;;;8.70;99.90;;;;;;5003299;28;20441;-87
2021/03/27 09:45:36;;;;;;;11.60;1.80;;;8.80;99.90;;;;;;4986958;28;20088;-87
2021/03/27 09:48:11;;;;;;;10.95;1.60;;;9.00;99.90;;;;;;4985866;28;20109;-87
2021/03/27 09:50:51;;;;;;;6.45;1.42;;;9.30;99.90;;;;;;5000278;28;20050;-86
2021/03/27 09:53:54;;;;;;;10.95;2.35;;;9.60;99.90;;;;;;4988931;28;20042;-86
2021/03/27 09:56:48;;;;;;;7.20;1.95;;;9.90;99.90;;;;;;4984499;28;20049;-86
2021/03/27 09:59:36;;;;;;;10.85;2.08;;;9.90;98.90;;;;;;4986802;28;20100;-87
2021/03/27 10:02:08;;;;;;;13.13;1.90;;;9.70;98.30;;;;;;4991964;28;20053;-87
2021/03/27 10:04:54;;;;;;;8.77;1.73;;;9.50;96.50;;;;;;4991264;28;20133;-87
2021/03/27 10:07:47;;;;;;;9.05;1.40;;;9.20;96.80;;;;;;4991224;28;20046;-87
2021/03/27 10:10:33;;;;;;;;;;;9.00;98.40;;;;;;4971422;28;20481;-87
2021/03/27 10:13:13;;;;;;;;;;;9.20;97.40;;;;;;4981768;28;19937;-87
2021/03/27 10:15:47;;;;;;;7.50;1.58;;;9.40;99.90;;;;;;5000350;28;19927;-86
2021/03/27 10:18:34;;;;;;;8.88;1.70;;;9.60;98.40;;;;;;4988260;28;20073;-86
2021/03/27 10:21:30;;;;;;;14.30;2.10;;;9.60;97.20;;;;;;4997367;28;20046;-88
2021/03/27 10:24:10;;;;;;;11.75;1.65;;;9.80;99.00;;;;;;4987992;28;20057;-87
2021/03/27 10:26:44;;;;;;;10.50;2.58;;;10.00;97.50;;;;;;4985151;28;20413;-88
2021/03/27 10:29:10;;;;;;;11.48;1.95;;;10.20;99.40;;;;;;5002068;28;20124;-88
2021/03/27 10:31:43;;;;;;;8.57;2.20;;;10.50;96.30;;;;;;4988255;28;20129;-88
2021/03/27 10:34:33;;;;;;;9.43;1.48;;;10.50;93.40;;;;;;4980272;28;20049;-88
2021/03/27 10:37:07;;;;;;;8.88;1.70;;;10.40;93.20;;;;;;4985544;28;20047;-88
2021/03/27 10:40:00;;;;;;;11.70;2.40;;;10.40;95.00;;;;;;5003904;28;20062;-88
2021/03/27 10:42:35;;;;;;;6.35;1.50;;;10.60;96.20;;;;;;4985467;28;20107;-88
2021/03/27 10:45:19;;;;;;;9.20;1.55;;;10.70;92.00;;;;;;5004141;28;20173;-88
2021/03/27 10:48:15;;;;;;;11.57;1.70;;;10.70;92.80;;;;;;4978646;28;20058;-88
2021/03/27 10:50:59;;;;;;;7.85;2.10;;;10.80;94.80;;;;;;4974379;28;20042;-88
2021/03/27 10:54:02;;;;;;;9.63;1.45;;;11.10;91.80;;;;;;5000838;28;20077;-87
2021/03/27 10:56:48;;;;;;;6.90;1.42;;;11.20;90.80;;;;;;5003619;28;20034;-88
2021/03/27 10:59:56;;;;;;;14.20;1.65;;;11.10;91.50;;;;;;4989021;28;20576;-87
2021/03/27 11:02:56;;;;;;;11.48;1.98;;;10.90;95.60;;;;;;5003332;28;20046;-87
2021/03/27 11:05:40;;;;;;;7.97;1.30;;;10.80;95.50;;;;;;4973349;28;20050;-88
2021/03/27 11:08:34;;;;;;;11.98;2.08;;;10.60;95.60;;;;;;5004223;28;20104;-88
2021/03/27 11:11:26;;;;;;;8.73;1.48;;;10.30;96.80;;;;;;5004385;28;20482;-88
2021/03/27 11:14:22;;;;;;;7.90;1.20;;;10.00;99.20;;;;;;5000525;28;20049;-88
2021/03/27 11:17:07;;;;;;;11.43;2.25;;;9.50;99.90;;;;;;4986374;28;20057;-88
2021/03/27 11:19:48;;;;;;;10.10;1.35;;;8.80;99.90;;;;;;4982639;28;20046;-88
2021/03/27 11:22:22;;;;;;;8.43;2.33;;;8.50;99.90;;;;;;5000292;28;20065;-88
2021/03/27 11:25:10;;;;;;;8.57;1.95;;;8.70;99.90;;;;;;5000559;28;20073;-88
2021/03/27 11:27:53;;;;;;;8.75;1.98;;;9.20;99.90;;;;;;4999882;28;20530;-88
2021/03/27 11:30:34;;;;;;;11.60;1.73;;;9.30;99.90;;;;;;4980336;28;20069;-88
2021/03/27 11:33:45;;;;;;;9.40;2.22;;;9.00;99.90;;;;;;4991057;28;20080;-88
2021/03/27 11:36:16;;;;;;;7.53;2.28;;;8.60;99.90;;;;;;4994652;28;20497;-88
2021/03/27 11:38:55;;;;;;;11.80;2.50;;;8.10;99.90;;;;;;5001965;28;20061;-88
2021/03/27 11:41:38;;;;;;;12.68;2.53;;;8.00;99.90;;;;;;4983253;28;20489;-87
2021/03/27 11:44:16;;;;;;;8.25;1.88;;;8.20;99.90;;;;;;5004767;28;20042;-85
2021/03/27 11:46:52;;;;;;;12.43;2.65;;;8.60;99.90;;;;;;4998487;28;20452;-86
2021/03/27 11:49:40;;;;;;;19.48;2.60;;;9.10;99.90;;;;;;4957825;28;20054;-86
2021/03/27 11:52:44;;;;;;;13.25;2.53;;;9.40;99.90;;;;;;4991051;28;20054;-87
2021/03/27 11:55:38;;;;;;;11.45;3.75;;;9.40;99.90;;;;;;4988813;28;20461;-87
2021/03/27 12:01:40;;;;;;;4.35;1.17;;;9.10;99.90;;;;;;4996518;28;21525;-86
2021/03/27 12:04:44;;;;;;;11.98;2.30;;;9.10;99.90;;;;;;5001666;28;20064;-87
2021/03/27 12:07:20;;;;;;;6.15;1.65;;;9.30;99.90;;;;;;5009338;28;20060;-87
2021/03/27 12:10:06;;;;;;;11.40;1.52;;;9.60;99.90;;;;;;5001025;28;20132;-87
2021/03/27 12:12:38;;;;;;;4.93;1.10;;;10.00;99.90;;;;;;4993200;28;20045;-87
2021/03/27 12:15:28;;;;;;;10.52;1.40;;;10.20;99.90;;;;;;4990191;28;20057;-87
2021/03/27 12:18:16;;;;;;;13.65;2.50;;;10.30;99.90;;;;;;4993162;28;20053;-87
2021/03/27 12:21:14;;;;;;;11.70;1.63;;;10.60;99.90;;;;;;4988027;28;20047;-87
2021/03/27 12:24:02;;;;;;;14.32;1.73;;;10.50;99.90;;;;;;5009780;28;20052;-87
2021/03/27 12:26:39;;;;;;;7.85;1.83;;;10.40;99.90;;;;;;5013276;28;20054;-85
2021/03/27 12:29:08;;;;;;;13.40;2.10;;;10.30;99.90;;;;;;5005870;28;20057;-87
2021/03/27 12:32:16;;;;;;;10.63;1.55;;;10.30;99.90;;;;;;5004679;28;20050;-87
2021/03/27 12:35:04;;;;;;;9.73;2.80;;;10.70;99.90;;;;;;5007657;28;20054;-88
2021/03/27 12:37:54;;;;;;;21.92;2.88;;;11.20;99.90;;;;;;5010229;28;20477;-87
2021/03/27 12:40:52;;;;;;;11.38;2.33;;;11.40;99.90;;;;;;5006294;28;20485;-87
2021/03/27 12:43:22;;;;;;;14.85;3.08;;;11.00;99.90;;;;;;4984634;28;20085;-88
2021/03/27 12:45:51;;;;;;;9.30;2.97;;;10.30;99.90;;;;;;4991633;28;20053;-88
2021/03/27 12:48:38;;;;;;;15.35;3.05;;;9.70;99.90;;;;;;4984198;28;20056;-88
2021/03/27 12:51:17;;;;;;;14.02;3.38;;;9.20;99.90;;;;;;4994087;28;20143;-87
2021/03/27 12:54:02;;;;;;;9.75;2.97;;;8.80;99.90;;;;;;4984335;28;20046;-86
2021/03/27 12:56:43;;;;;;;11.00;1.73;;;8.70;99.90;;;;;;4990618;28;20045;-87
2021/03/27 12:59:25;;;;;;;8.95;1.65;;;8.70;99.90;;;;;;4998334;28;20046;-88
2021/03/27 13:02:19;;;;;;;9.18;2.00;;;8.70;99.90;;;;;;4998565;28;20073;-88
2021/03/27 13:05:14;;;;;;;13.93;2.67;;;8.70;99.90;;;;;;4989190;28;20137;-89
2021/03/27 13:07:49;;;;;;;11.50;2.00;;;8.70;99.90;;;;;;4986911;28;20127;-89
2021/03/27 13:10:31;;;;;;;11.40;2.00;;;8.80;99.90;;;;;;4982695;28;20065;-89
2021/03/27 13:13:16;;;;;;;13.13;2.22;;;9.40;99.90;;;;;;4988752;28;20057;-89
2021/03/27 13:15:51;;;;;;;11.32;2.20;;;10.20;99.90;;;;;;5000240;28;20108;-89
2021/03/27 13:18:48;;;;;;;12.68;1.95;;;10.20;99.90;;;;;;4987864;28;20054;-87
2021/03/27 13:21:29;;;;;;;15.45;2.53;;;10.00;99.90;;;;;;4987172;28;20133;-87
2021/03/27 13:24:06;;;;;;;21.38;2.85;;;9.80;99.90;;;;;;4984659;28;20046;-88
2021/03/27 13:26:33;;;;;;;;;;;10.10;99.90;;;;;;4990061;28;20056;-87
2021/03/27 13:29:05;;;;;;;11.73;2.58;;;10.40;99.90;;;;;;4974373;28;21231;-87
2021/03/27 13:31:48;;;;;;;8.52;1.70;;;10.70;99.90;;;;;;4987801;28;20513;-86
2021/03/27 13:34:21;;;;;;;11.05;1.70;;;11.10;99.90;;;;;;4988324;28;20047;-87
2021/03/27 13:37:11;;;;;;;8.93;1.58;;;11.70;96.10;;;;;;4981834;28;20065;-86
2021/03/27 13:39:43;;;;;;;14.75;2.70;;;12.00;92.60;;;;;;4985635;28;20050;-87
2021/03/27 13:42:31;;;;;;;14.55;2.50;;;11.80;92.60;;;;;;4982420;28;20805;-87
2021/03/27 13:45:21;;;;;;;15.68;2.38;;;11.90;94.20;;;;;;4986571;28;20133;-87
2021/03/27 13:48:07;;;;;;;15.82;2.67;;;12.10;96.60;;;;;;4986814;28;20070;-87
2021/03/27 13:50:44;;;;;;;17.17;2.45;;;12.70;91.30;;;;;;4986174;28;20054;-86
2021/03/27 13:53:31;;;;;;;20.50;2.90;;;12.80;90.20;;;;;;4983241;28;20052;-86
2021/03/27 13:56:03;;;;;;;12.15;2.05;;;12.50;90.70;;;;;;4988097;28;20115;-89
2021/03/27 13:58:52;;;;;;;10.82;2.13;;;12.10;90.00;;;;;;4994432;28;20109;-89
2021/03/27 14:01:36;;;;;;;8.63;1.67;;;11.80;92.00;;;;;;4988710;28;20085;-89
2021/03/27 14:04:19;;;;;;;14.70;2.67;;;11.70;91.50;;;;;;4984723;28;20076;-88
2021/03/27 14:07:01;;;;;;;12.95;2.08;;;11.50;91.40;;;;;;4991608;28;20054;-89
2021/03/27 14:09:52;;;;;;;16.20;2.60;;;11.30;92.20;;;;;;4975736;28;20138;-89
2021/03/27 14:13:06;;;;;;;8.60;1.90;;;11.20;93.50;;;;;;5004472;28;20066;-89
2021/03/27 14:15:39;;;;;;;13.65;2.38;;;11.30;92.80;;;;;;4974264;28;20069;-88
2021/03/27 14:18:10;;;;;;;12.50;1.95;;;12.50;93.40;;;;;;4997424;28;20042;-87
2021/03/27 14:21:13;;;;;;;14.88;2.55;;;14.10;84.70;;;;;;4979874;28;20416;-86
2021/03/27 14:24:24;;;;;;;9.35;1.70;;;14.40;74.60;;;;;;4987651;28;20060;-86
2021/03/27 14:27:13;;;;;;;18.42;2.63;;;14.60;74.70;;;;;;4989579;28;20068;-87